createdAt,value
2017-06-20T00:01:05.434Z,5.40
2017-06-20T00:03:33.856Z,5.03
2017-06-20T00:06:02.270Z,6.23
2017-06-20T00:08:30.711Z,5.40
2017-06-20T00:10:59.143Z,5.90
2017-06-20T00:13:27.600Z,5.80
2017-06-20T00:15:56.787Z,6.37
2017-06-20T00:18:25.218Z,5.70
2017-06-20T00:20:53.670Z,5.90
2017-06-20T00:23:22.859Z,5.77
2017-06-20T00:25:52.174Z,5.90
2017-06-20T00:28:21.362Z,5.23
2017-06-20T00:30:50.563Z,5.00
2017-06-20T00:33:19.772Z,6.40
2017-06-20T00:35:48.204Z,5.63
2017-06-20T00:38:16.657Z,5.97
2017-06-20T00:40:45.066Z,5.60
2017-06-20T00:43:13.498Z,6.43
2017-06-20T00:45:41.931Z,6.10
2017-06-20T00:48:10.374Z,5.80
2017-06-20T00:50:38.804Z,6.60
2017-06-20T00:53:07.255Z,6.70
2017-06-20T00:55:35.697Z,6.33
2017-06-20T00:58:04.881Z,5.90
2017-06-20T01:00:33.310Z,6.13
2017-06-20T01:03:01.731Z,6.10
2017-06-20T01:05:30.263Z,5.80
2017-06-20T01:07:58.687Z,5.73
2017-06-20T01:10:27.124Z,5.63
2017-06-20T01:12:55.592Z,5.63
2017-06-20T01:15:24.791Z,5.83
2017-06-20T01:17:53.998Z,6.43
2017-06-20T01:20:22.423Z,6.07
2017-06-20T01:22:50.957Z,6.03
2017-06-20T01:25:19.387Z,5.80
2017-06-20T01:27:47.834Z,6.50
2017-06-20T01:30:16.254Z,5.33
2017-06-20T01:32:44.696Z,6.40
2017-06-20T01:35:13.124Z,5.80
2017-06-20T01:37:41.579Z,5.53
2017-06-20T01:40:10.007Z,6.47
2017-06-20T01:42:39.118Z,5.87
2017-06-20T01:45:08.331Z,6.20
2017-06-20T01:47:36.867Z,6.50
2017-06-20T01:50:05.471Z,5.73
2017-06-20T01:52:34.687Z,6.00
2017-06-20T01:55:04.127Z,5.60
2017-06-20T01:57:32.679Z,6.63
2017-06-20T02:00:01.103Z,6.33
2017-06-20T02:02:29.559Z,6.03
2017-06-20T02:04:58.086Z,5.80
2017-06-20T02:07:26.580Z,5.70
2017-06-20T02:09:54.643Z,5.63
2017-06-20T02:12:23.065Z,5.43
2017-06-20T02:14:51.499Z,5.83
2017-06-20T02:17:19.930Z,6.17
2017-06-20T02:19:48.015Z,5.70
2017-06-20T02:22:16.486Z,6.47
2017-06-20T02:24:45.764Z,5.83
2017-06-20T02:27:14.947Z,5.57
2017-06-20T02:29:43.488Z,5.83
2017-06-20T02:32:11.902Z,5.30
2017-06-20T02:34:40.349Z,5.73
2017-06-20T02:37:08.786Z,6.40
2017-06-20T02:39:37.218Z,6.33
2017-06-20T02:42:05.679Z,5.83
2017-06-20T02:44:34.099Z,5.80
2017-06-20T02:47:02.545Z,5.53
2017-06-20T02:49:32.443Z,5.67
2017-06-20T02:52:01.825Z,5.73
2017-06-20T02:54:30.384Z,6.30
2017-06-20T02:56:58.814Z,5.83
2017-06-20T02:59:28.027Z,6.50
2017-06-20T03:01:56.469Z,5.83
2017-06-20T03:04:24.903Z,5.60
2017-06-20T03:06:53.350Z,6.03
2017-06-20T03:09:22.550Z,5.97
2017-06-20T03:11:51.769Z,5.60
2017-06-20T03:14:20.190Z,5.73
2017-06-20T03:16:48.606Z,5.53
2017-06-20T03:19:17.914Z,6.40
2017-06-20T03:21:47.138Z,5.97
2017-06-20T03:24:15.572Z,6.10
2017-06-20T03:26:43.983Z,6.07
2017-06-20T03:29:13.194Z,5.37
2017-06-20T03:31:41.615Z,5.87
2017-06-20T03:34:10.038Z,5.60
2017-06-20T03:36:39.229Z,5.93
2017-06-20T03:39:08.423Z,5.30
2017-06-20T03:41:36.867Z,5.60
2017-06-20T03:44:05.290Z,6.13
2017-06-20T03:46:34.514Z,6.10
2017-06-20T03:49:02.959Z,6.07
2017-06-20T03:51:31.387Z,5.30
2017-06-20T03:53:59.839Z,6.13
2017-06-20T03:56:29.027Z,6.30
2017-06-20T03:58:57.459Z,5.83
2017-06-20T04:01:26.149Z,6.07
2017-06-20T04:03:54.684Z,5.43
2017-06-20T04:06:23.907Z,5.80
2017-06-20T04:08:53.087Z,5.53
2017-06-20T04:11:22.297Z,5.20
2017-06-20T04:13:51.478Z,6.10
2017-06-20T04:16:19.926Z,5.80
2017-06-20T04:18:48.359Z,6.73
2017-06-20T04:21:23.067Z,6.47
2017-06-20T04:23:51.514Z,5.80
2017-06-20T04:26:19.983Z,6.63
2017-06-20T04:28:48.423Z,5.87
2017-06-20T04:31:17.818Z,5.30
2017-06-20T04:33:46.252Z,6.20
2017-06-20T04:36:14.683Z,6.20
2017-06-20T04:38:43.095Z,5.47
2017-06-20T04:41:11.707Z,5.70
2017-06-20T04:43:40.120Z,5.73
2017-06-20T04:46:08.544Z,6.13
2017-06-20T04:48:37.014Z,6.40
2017-06-20T04:51:06.191Z,5.70
2017-06-20T04:53:34.620Z,5.70
2017-06-20T04:56:03.062Z,6.00
2017-06-20T04:58:31.663Z,6.60
2017-06-20T05:01:00.143Z,6.03
2017-06-20T05:03:28.572Z,6.20
2017-06-20T05:05:57.008Z,5.67
2017-06-20T05:08:25.426Z,6.20
2017-06-20T05:10:53.847Z,5.70
2017-06-20T05:13:23.164Z,6.33
2017-06-20T05:15:52.366Z,5.73
2017-06-20T05:18:20.802Z,6.07
2017-06-20T05:20:49.312Z,6.07
2017-06-20T05:23:17.772Z,6.50
2017-06-20T05:25:46.218Z,6.70
2017-06-20T05:28:14.679Z,6.73
2017-06-20T05:30:43.164Z,5.93
2017-06-20T05:33:11.581Z,6.23
2017-06-20T05:35:40.027Z,5.67
2017-06-20T05:38:08.463Z,6.10
2017-06-20T05:40:36.914Z,6.60
2017-06-20T05:43:05.155Z,6.60
2017-06-20T05:45:34.407Z,6.37
2017-06-20T05:48:02.852Z,6.30
2017-06-20T05:50:31.266Z,6.23
2017-06-20T05:53:00.638Z,6.30
2017-06-20T05:55:29.079Z,5.97
2017-06-20T05:57:57.523Z,5.77
2017-06-20T06:00:25.758Z,7.10
2017-06-20T06:02:55.000Z,5.87
2017-06-20T06:05:23.462Z,5.80
2017-06-20T06:07:51.931Z,6.03
2017-06-20T06:10:20.371Z,5.60
2017-06-20T06:12:48.819Z,5.90
2017-06-20T06:15:17.342Z,6.53
2017-06-20T06:17:45.855Z,5.87
2017-06-20T06:20:14.303Z,6.20
2017-06-20T06:22:43.340Z,5.90
2017-06-20T06:25:11.844Z,5.30
2017-06-20T06:27:40.267Z,5.50
2017-06-20T06:30:08.723Z,5.50
2017-06-20T06:32:37.150Z,5.93
2017-06-20T06:35:05.610Z,5.47
2017-06-20T06:37:33.890Z,5.57
2017-06-20T06:40:02.339Z,5.90
2017-06-20T06:42:30.774Z,5.70
2017-06-20T06:44:59.218Z,5.97
2017-06-20T06:47:27.687Z,5.67
2017-06-20T06:49:56.107Z,6.03
2017-06-20T06:52:24.549Z,5.73
2017-06-20T06:54:52.963Z,6.10
2017-06-20T06:57:21.405Z,6.80
2017-06-20T06:59:49.923Z,6.53
2017-06-20T07:02:18.394Z,8.20
2017-06-20T07:04:46.832Z,8.43
2017-06-20T07:07:15.270Z,7.00
2017-06-20T07:09:43.713Z,6.00
2017-06-20T07:12:12.184Z,6.50
2017-06-20T07:14:40.624Z,6.13
2017-06-20T07:17:09.074Z,6.77
2017-06-20T07:19:38.200Z,7.10
2017-06-20T07:22:06.647Z,6.90
2017-06-20T07:24:35.076Z,6.37
2017-06-20T07:27:03.530Z,7.63
2017-06-20T07:29:31.991Z,6.83
2017-06-20T07:32:00.815Z,7.20
2017-06-20T07:34:30.027Z,7.67
2017-06-20T07:36:58.868Z,6.33
2017-06-20T07:39:28.063Z,6.93
2017-06-20T07:41:56.883Z,7.87
2017-06-20T07:44:26.195Z,7.07
2017-06-20T07:46:55.291Z,6.17
2017-06-20T07:49:26.137Z,6.10
2017-06-20T07:51:54.957Z,6.37
2017-06-20T07:54:23.386Z,5.70
2017-06-20T07:56:51.811Z,6.27
2017-06-20T07:59:21.010Z,6.00
2017-06-20T08:01:49.457Z,5.80
2017-06-20T08:04:18.078Z,5.80
2017-06-20T08:06:47.192Z,6.80
2017-06-20T08:09:15.627Z,6.30
2017-06-20T08:11:44.068Z,5.80
2017-06-20T08:14:12.490Z,5.77
2017-06-20T08:16:41.006Z,5.53
2017-06-20T08:19:09.435Z,6.50
2017-06-20T08:21:43.459Z,5.90
2017-06-20T08:24:11.878Z,5.63
2017-06-20T08:26:40.332Z,5.50
2017-06-20T08:29:08.847Z,6.23
2017-06-20T08:31:37.267Z,6.03
2017-06-20T08:34:05.723Z,5.63
2017-06-20T08:36:34.199Z,6.00
2017-06-20T08:39:02.432Z,5.17
2017-06-20T08:41:30.878Z,6.13
2017-06-20T08:43:59.299Z,5.97
2017-06-20T08:46:27.736Z,5.67
2017-06-20T08:48:56.292Z,5.87
2017-06-20T08:51:24.776Z,6.27
2017-06-20T08:53:53.958Z,5.70
2017-06-20T08:56:23.147Z,6.10
2017-06-20T08:58:51.586Z,6.50
2017-06-20T09:01:20.042Z,6.30
2017-06-20T09:03:48.519Z,6.20
2017-06-20T09:06:17.009Z,6.60
2017-06-20T09:08:45.427Z,6.60
2017-06-20T09:11:13.859Z,6.20
2017-06-20T09:13:43.063Z,6.70
2017-06-20T09:16:11.518Z,6.97
2017-06-20T09:18:40.038Z,6.10
2017-06-20T09:21:08.479Z,5.80
2017-06-20T09:23:36.912Z,6.23
2017-06-20T09:26:05.401Z,6.30
2017-06-20T09:28:33.830Z,6.60
2017-06-20T09:31:02.262Z,6.67
2017-06-20T09:33:30.711Z,6.77
2017-06-20T09:36:00.048Z,6.40
2017-06-20T09:38:28.503Z,6.80
2017-06-20T09:40:57.344Z,6.70
2017-06-20T09:43:26.212Z,6.33
2017-06-20T09:45:55.395Z,5.80
2017-06-20T09:48:24.592Z,5.90
2017-06-20T09:50:53.795Z,7.30
2017-06-20T09:53:22.452Z,6.20
2017-06-20T09:55:50.875Z,6.63
2017-06-20T09:58:19.710Z,6.80
2017-06-20T10:00:48.528Z,6.77
2017-06-20T10:03:17.365Z,6.63
2017-06-20T10:05:45.815Z,6.60
2017-06-20T10:08:14.651Z,7.17
2017-06-20T10:10:43.479Z,6.70
2017-06-20T10:13:12.681Z,6.30
2017-06-20T10:15:41.522Z,7.03
2017-06-20T10:18:10.724Z,6.30
2017-06-20T10:20:39.589Z,6.93
2017-06-20T10:23:08.431Z,5.60
2017-06-20T10:25:37.620Z,7.30
2017-06-20T10:28:06.058Z,6.80
2017-06-20T10:30:34.482Z,6.40
2017-06-20T10:33:03.695Z,6.77
2017-06-20T10:35:32.522Z,7.00
2017-06-20T10:38:01.732Z,7.27
2017-06-20T10:40:30.561Z,6.37
2017-06-20T10:42:59.759Z,6.80
2017-06-20T10:45:28.599Z,6.97
2017-06-20T10:47:57.787Z,7.27
2017-06-20T10:50:26.211Z,6.60
2017-06-20T10:52:54.663Z,7.30
2017-06-20T10:55:23.096Z,7.20
2017-06-20T10:57:51.914Z,7.10
2017-06-20T11:00:20.355Z,6.87
2017-06-20T11:02:49.182Z,7.33
2017-06-20T11:05:17.607Z,6.40
2017-06-20T11:07:46.055Z,7.20
2017-06-20T11:10:14.900Z,6.43
2017-06-20T11:12:43.339Z,7.50
2017-06-20T11:15:12.196Z,6.53
2017-06-20T11:17:41.030Z,6.30
2017-06-20T11:20:10.219Z,7.33
2017-06-20T11:22:39.060Z,6.83
2017-06-20T11:25:08.240Z,6.93
2017-06-20T11:27:37.079Z,6.70
2017-06-20T11:30:06.332Z,6.70
2017-06-20T11:32:35.160Z,6.40
2017-06-20T11:35:03.993Z,6.83
2017-06-20T11:37:32.485Z,5.90
2017-06-20T11:40:00.931Z,6.50
2017-06-20T11:42:29.371Z,6.80
2017-06-20T11:44:57.796Z,6.40
2017-06-20T11:47:26.644Z,6.33
2017-06-20T11:49:55.837Z,7.00
2017-06-20T11:52:24.663Z,6.83
2017-06-20T11:54:53.874Z,6.70
2017-06-20T11:57:23.772Z,6.60
2017-06-20T11:59:52.612Z,7.00
2017-06-20T12:02:21.801Z,6.47
2017-06-20T12:04:50.632Z,6.80
2017-06-20T12:07:19.823Z,6.40
2017-06-20T12:09:49.054Z,6.37
2017-06-20T12:12:18.303Z,6.83
2017-06-20T12:14:47.139Z,7.20
2017-06-20T12:17:16.335Z,7.10
2017-06-20T12:19:45.261Z,6.70
2017-06-20T12:22:14.101Z,6.40
2017-06-20T12:24:43.295Z,6.47
2017-06-20T12:27:12.132Z,6.70
2017-06-20T12:29:40.959Z,7.13
2017-06-20T12:32:10.166Z,6.90
2017-06-20T12:34:39.366Z,7.07
2017-06-20T12:37:08.256Z,7.03
2017-06-20T12:39:37.083Z,7.03
2017-06-20T12:42:06.288Z,7.17
2017-06-20T12:44:35.144Z,7.23
2017-06-20T12:47:04.357Z,7.57
2017-06-20T12:49:33.175Z,7.23
2017-06-20T12:52:02.007Z,6.83
2017-06-20T12:54:31.196Z,7.47
2017-06-20T12:57:00.037Z,7.20
2017-06-20T12:59:28.645Z,7.40
2017-06-20T13:01:57.463Z,7.23
2017-06-20T13:04:26.317Z,7.70
2017-06-20T13:06:55.616Z,7.50
2017-06-20T13:09:24.563Z,7.60
2017-06-20T13:11:53.438Z,7.10
2017-06-20T13:14:22.258Z,7.60
2017-06-20T13:16:51.467Z,6.97
2017-06-20T13:19:20.395Z,7.40
2017-06-20T13:21:49.595Z,6.67
2017-06-20T13:24:18.412Z,7.33
2017-06-20T13:26:47.633Z,7.43
2017-06-20T13:29:16.467Z,6.30
2017-06-20T13:31:45.672Z,7.70
2017-06-20T13:34:14.501Z,7.20
2017-06-20T13:36:43.707Z,7.10
2017-06-20T13:39:12.551Z,6.83
2017-06-20T13:41:41.774Z,7.53
2017-06-20T13:44:10.972Z,6.50
2017-06-20T13:46:39.783Z,7.27
2017-06-20T13:49:08.996Z,6.90
2017-06-20T13:51:37.806Z,6.60
2017-06-20T13:54:06.655Z,7.77
2017-06-20T13:56:35.847Z,7.30
2017-06-20T13:59:04.695Z,7.20
2017-06-20T14:01:33.937Z,7.20
2017-06-20T14:04:02.730Z,7.67
2017-06-20T14:06:31.943Z,7.50
2017-06-20T14:09:00.763Z,6.77
2017-06-20T14:11:29.193Z,7.40
2017-06-20T14:13:58.452Z,7.70
2017-06-20T14:16:27.296Z,9.10
2017-06-20T14:18:57.167Z,7.90
2017-06-20T14:21:26.371Z,7.23
2017-06-20T14:23:55.211Z,8.50
2017-06-20T14:26:24.028Z,7.50
2017-06-20T14:28:53.247Z,8.30
2017-06-20T14:31:22.111Z,8.33
2017-06-20T14:33:52.292Z,7.70
2017-06-20T14:36:22.391Z,7.73
2017-06-20T14:38:51.240Z,7.53
2017-06-20T14:41:20.503Z,7.00
2017-06-20T14:43:49.395Z,7.33
2017-06-20T14:46:18.266Z,7.30
2017-06-20T14:48:46.698Z,7.30
2017-06-20T14:51:15.919Z,7.97
2017-06-20T14:53:45.123Z,8.03
2017-06-20T14:56:13.558Z,7.67
2017-06-20T14:58:41.995Z,7.13
2017-06-20T15:01:10.251Z,7.13
2017-06-20T15:03:38.675Z,7.93
2017-06-20T15:06:07.533Z,6.60
2017-06-20T15:08:36.726Z,6.47
2017-06-20T15:11:05.936Z,7.70
2017-06-20T15:13:34.868Z,7.30
2017-06-20T15:16:03.680Z,6.60
2017-06-20T15:18:32.894Z,6.70
2017-06-20T15:21:01.719Z,7.03
2017-06-20T15:23:30.986Z,7.37
2017-06-20T15:26:00.195Z,7.50
2017-06-20T15:28:29.376Z,7.67
2017-06-20T15:30:58.207Z,6.50
2017-06-20T15:33:27.033Z,7.30
2017-06-20T15:35:56.247Z,6.77
2017-06-20T15:38:25.104Z,6.90
2017-06-20T15:40:53.923Z,7.07
2017-06-20T15:43:23.122Z,6.93
2017-06-20T15:45:52.324Z,7.43
2017-06-20T15:48:21.163Z,6.50
2017-06-20T15:50:49.979Z,6.60
2017-06-20T15:53:19.160Z,6.60
2017-06-20T15:55:48.363Z,7.30
2017-06-20T15:58:17.196Z,6.93
2017-06-20T16:00:46.412Z,6.40
2017-06-20T16:03:15.603Z,6.70
2017-06-20T16:05:44.805Z,6.70
2017-06-20T16:08:13.652Z,6.33
2017-06-20T16:10:42.507Z,6.20
2017-06-20T16:13:11.711Z,5.87
2017-06-20T16:15:40.572Z,6.30
2017-06-20T16:18:09.397Z,6.37
2017-06-20T16:20:38.670Z,6.00
2017-06-20T16:23:07.504Z,6.17
2017-06-20T16:25:36.551Z,6.23
2017-06-20T16:28:05.742Z,6.40
2017-06-20T16:30:34.593Z,6.30
2017-06-20T16:33:03.770Z,6.90
2017-06-20T16:35:32.609Z,6.40
2017-06-20T16:38:01.828Z,6.57
2017-06-20T16:40:31.040Z,7.07
2017-06-20T16:42:59.877Z,6.57
2017-06-20T16:45:29.064Z,6.43
2017-06-20T16:47:57.908Z,6.50
2017-06-20T16:50:26.731Z,6.80
2017-06-20T16:52:55.948Z,6.43
2017-06-20T16:55:24.802Z,6.40
2017-06-20T16:57:54.015Z,6.93
2017-06-20T17:00:22.879Z,6.33
2017-06-20T17:02:52.110Z,6.47
2017-06-20T17:05:21.076Z,6.57
2017-06-20T17:07:49.891Z,6.57
2017-06-20T17:10:18.747Z,6.73
2017-06-20T17:12:47.948Z,7.17
2017-06-20T17:15:16.813Z,6.27
2017-06-20T17:17:46.044Z,6.40
2017-06-20T17:20:14.864Z,6.20
2017-06-20T17:22:44.062Z,6.40
2017-06-20T17:25:12.935Z,7.40
2017-06-20T17:27:41.475Z,6.80
2017-06-20T17:30:10.288Z,7.13
2017-06-20T17:32:39.131Z,6.50
2017-06-20T17:35:07.963Z,6.10
2017-06-20T17:37:37.055Z,7.10
2017-06-20T17:40:06.264Z,7.00
2017-06-20T17:42:35.502Z,6.50
2017-06-20T17:45:04.351Z,6.87
2017-06-20T17:47:33.539Z,6.90
2017-06-20T17:50:02.353Z,6.57
2017-06-20T17:52:31.563Z,6.73
2017-06-20T17:55:00.427Z,7.17
2017-06-20T17:57:28.882Z,6.60
2017-06-20T17:59:57.732Z,6.90
2017-06-20T18:02:27.559Z,6.87
2017-06-20T18:04:56.761Z,6.53
2017-06-20T18:07:25.821Z,6.40
2017-06-20T18:09:55.036Z,7.30
2017-06-20T18:12:23.902Z,7.20
2017-06-20T18:14:53.115Z,6.90
2017-06-20T18:17:21.983Z,7.37
2017-06-20T18:19:50.799Z,6.80
2017-06-20T18:22:19.992Z,7.07
2017-06-20T18:24:49.215Z,7.23
2017-06-20T18:27:18.404Z,7.90
2017-06-20T18:29:47.235Z,7.10
2017-06-20T18:32:16.435Z,7.40
2017-06-20T18:34:45.310Z,7.70
2017-06-20T18:37:14.171Z,7.23
2017-06-20T18:39:43.383Z,7.90
2017-06-20T18:42:12.273Z,7.30
2017-06-20T18:44:41.484Z,6.90
2017-06-20T18:47:10.673Z,7.50
2017-06-20T18:49:39.624Z,7.70
2017-06-20T18:52:08.482Z,7.03
2017-06-20T18:54:36.936Z,7.70
2017-06-20T18:57:06.246Z,7.80
2017-06-20T18:59:34.729Z,8.37
2017-06-20T19:02:03.913Z,7.70
2017-06-20T19:04:33.059Z,6.97
2017-06-20T19:07:01.916Z,7.10
2017-06-20T19:09:30.769Z,7.40
2017-06-20T19:11:59.700Z,8.10
2017-06-20T19:14:28.555Z,7.03
2017-06-20T19:16:57.788Z,7.80
2017-06-20T19:19:26.661Z,7.73
2017-06-20T19:21:55.643Z,8.03
2017-06-20T19:24:24.478Z,14.70
2017-06-20T19:26:52.981Z,9.57
2017-06-20T19:29:21.403Z,9.30
2017-06-20T19:31:50.226Z,7.50
2017-06-20T19:34:19.419Z,7.70
2017-06-20T19:36:48.611Z,8.23
2017-06-20T19:39:17.499Z,8.97
2017-06-20T19:41:46.687Z,8.37
2017-06-20T19:44:15.559Z,8.00
2017-06-20T19:46:44.374Z,9.03
2017-06-20T19:49:13.567Z,8.00
2017-06-20T19:51:42.778Z,8.43
2017-06-20T19:54:12.020Z,8.50
2017-06-20T19:56:40.859Z,9.57
2017-06-20T19:59:10.079Z,10.67
2017-06-20T20:01:38.925Z,8.90
2017-06-20T20:04:07.761Z,8.67
2017-06-20T20:06:36.984Z,9.90
2017-06-20T20:09:05.143Z,10.33
2017-06-20T20:11:33.970Z,9.03
2017-06-20T20:14:02.823Z,8.70
2017-06-20T20:16:31.675Z,9.37
2017-06-20T20:19:00.512Z,9.10
2017-06-20T20:21:29.339Z,8.83
2017-06-20T20:23:58.670Z,9.30
2017-06-20T20:26:27.523Z,9.00
2017-06-20T20:28:56.356Z,9.27
2017-06-20T20:31:25.580Z,9.00
2017-06-20T20:33:54.408Z,9.33
2017-06-20T20:36:23.242Z,10.47
2017-06-20T20:38:52.451Z,10.03
2017-06-20T20:41:21.304Z,10.47
2017-06-20T20:43:50.129Z,10.43
2017-06-20T20:46:19.401Z,9.60
2017-06-20T20:48:47.915Z,10.50
2017-06-20T20:51:17.175Z,10.20
2017-06-20T20:53:46.032Z,10.97
2017-06-20T20:56:14.871Z,11.03
2017-06-20T20:58:44.068Z,9.50
2017-06-20T21:01:12.909Z,9.17
2017-06-20T21:03:41.748Z,9.93
2017-06-20T21:06:11.004Z,9.33
2017-06-20T21:08:39.855Z,9.17
2017-06-20T21:11:08.678Z,9.50
2017-06-20T21:13:37.576Z,10.60
2017-06-20T21:16:06.767Z,10.13
2017-06-20T21:18:35.627Z,9.23
2017-06-20T21:21:04.448Z,9.57
2017-06-20T21:23:33.652Z,9.50
2017-06-20T21:26:02.506Z,10.60
2017-06-20T21:28:31.324Z,10.07
2017-06-20T21:31:00.531Z,9.53
2017-06-20T21:33:29.363Z,11.13
2017-06-20T21:35:58.215Z,10.67
2017-06-20T21:38:27.408Z,8.87
2017-06-20T21:40:56.657Z,10.23
2017-06-20T21:43:25.187Z,10.80
2017-06-20T21:45:54.402Z,10.40
2017-06-20T21:48:23.613Z,10.03
2017-06-20T21:50:52.043Z,9.87
2017-06-20T21:53:20.490Z,9.80
2017-06-20T21:55:48.928Z,10.03
2017-06-20T21:58:17.363Z,10.90
2017-06-20T22:00:45.813Z,10.03
2017-06-20T22:03:15.123Z,10.00
2017-06-20T22:05:43.582Z,9.80
2017-06-20T22:08:12.067Z,9.93
2017-06-20T22:10:41.274Z,11.17
2017-06-20T22:13:10.579Z,9.40
2017-06-20T22:15:39.026Z,10.30
2017-06-20T22:18:07.465Z,10.83
2017-06-20T22:20:35.928Z,9.70
2017-06-20T22:23:04.376Z,10.20
2017-06-20T22:25:32.807Z,10.73
2017-06-20T22:28:01.218Z,10.50
2017-06-20T22:30:29.655Z,11.00
2017-06-20T22:32:58.104Z,10.40
2017-06-20T22:35:26.550Z,10.17
2017-06-20T22:37:54.995Z,10.23
2017-06-20T22:40:23.437Z,11.10
2017-06-20T22:42:51.863Z,10.60
2017-06-20T22:45:20.328Z,11.50
2017-06-20T22:47:49.539Z,11.13
2017-06-20T22:50:18.743Z,12.10
2017-06-20T22:52:47.166Z,10.63
2017-06-20T22:55:15.623Z,11.93
2017-06-20T22:57:44.051Z,11.40
2017-06-20T23:00:12.502Z,12.00
2017-06-20T23:02:40.943Z,11.70
2017-06-20T23:05:09.523Z,12.33
2017-06-20T23:07:38.730Z,11.70
2017-06-20T23:10:07.190Z,12.70
2017-06-20T23:12:35.690Z,11.87
2017-06-20T23:15:04.534Z,12.13
2017-06-20T23:17:32.978Z,11.70
2017-06-20T23:20:01.432Z,13.13
2017-06-20T23:22:29.931Z,12.37
2017-06-20T23:24:58.391Z,12.30
2017-06-20T23:27:27.027Z,11.73
2017-06-20T23:29:55.487Z,11.90
2017-06-20T23:32:24.787Z,12.10
2017-06-20T23:34:53.243Z,12.37
2017-06-20T23:37:21.696Z,11.17
2017-06-20T23:39:50.149Z,11.77
2017-06-20T23:42:18.595Z,13.73
2017-06-20T23:44:47.785Z,12.37
2017-06-20T23:47:16.226Z,11.10
2017-06-20T23:49:44.670Z,12.53
2017-06-20T23:52:13.099Z,12.03
2017-06-20T23:54:41.556Z,12.20
2017-06-20T23:57:09.989Z,12.80
2017-06-20T23:59:38.442Z,12.67
